Blue Mound, Kansas
Current Conditions -  °F | °C
As of 8:52 PM on Friday 19 Dec 2014 (Local Time) from KCNU Reporting Station
Moderate Fog Moderate Fog  
Wind Chill: 34°   Ceiling: 200
Heat Index: 34°   Visibility: 0.25mi
Dew Point: 34°   Wind: 3mph
Humidity: 100%   Direction: 300°WNW
Pressure: 30.21"   Gusts: NA
Location:  38.09°N, 95.01°W
Report Text: KCNU 200252Z AUTO 30003KT 1/4SM FG VV002 01/01 A3021 RMK AO2 SLP238 T00110011 53003
Loading
Personal Weather Stations






























Interactive Weather Map New forecast layout! Learn more

10-Day Weather Forecast

Advertisements
Track Severe Weather on mobile